sensor_id;sensor_type;location;lat;lon;timestamp;pressure;altitude;pressure_sealevel;temperature;humidity
70546;BME280;58098;51.680;5.134;2023-09-19T00:00:06;100804.28;;;14.01;100.00
70546;BME280;58098;51.680;5.134;2023-09-19T00:02:32;100804.31;;;13.92;100.00
70546;BME280;58098;51.680;5.134;2023-09-19T00:04:58;100815.59;;;13.92;100.00
70546;BME280;58098;51.680;5.134;2023-09-19T00:07:23;100816.63;;;13.81;100.00
70546;BME280;58098;51.680;5.134;2023-09-19T00:09:49;100814.56;;;13.75;100.00
70546;BME280;58098;51.680;5.134;2023-09-19T00:12:14;100819.41;;;13.70;100.00
70546;BME280;58098;51.680;5.134;2023-09-19T00:14:40;100833.38;;;13.61;100.00
70546;BME280;58098;51.680;5.134;2023-09-19T00:17:05;100828.81;;;13.54;100.00
70546;BME280;58098;51.680;5.134;2023-09-19T00:19:36;100816.84;;;13.42;100.00
70546;BME280;58098;51.680;5.134;2023-09-19T00:22:02;100833.38;;;13.42;100.00
70546;BME280;58098;51.680;5.134;2023-09-19T00:24:28;100825.38;;;13.34;100.00
70546;BME280;58098;51.680;5.134;2023-09-19T00:26:53;100845.81;;;13.40;100.00
70546;BME280;58098;51.680;5.134;2023-09-19T00:29:21;100827.75;;;13.28;100.00
70546;BME280;58098;51.680;5.134;2023-09-19T00:31:46;100846.66;;;13.31;100.00
70546;BME280;58098;51.680;5.134;2023-09-19T00:34:11;100846.94;;;13.28;100.00
70546;BME280;58098;51.680;5.134;2023-09-19T00:36:37;100852.16;;;13.28;100.00
70546;BME280;58098;51.680;5.134;2023-09-19T00:39:06;100855.75;;;13.27;100.00
70546;BME280;58098;51.680;5.134;2023-09-19T00:41:33;100852.59;;;13.23;100.00
70546;BME280;58098;51.680;5.134;2023-09-19T00:44:01;100863.47;;;13.29;100.00
70546;BME280;58098;51.680;5.134;2023-09-19T00:46:27;100854.22;;;13.24;100.00
70546;BME280;58098;51.680;5.134;2023-09-19T00:48:52;100861.25;;;13.24;100.00
70546;BME280;58098;51.680;5.134;2023-09-19T00:51:19;100883.03;;;13.34;100.00
70546;BME280;58098;51.680;5.134;2023-09-19T00:53:47;100882.38;;;13.32;100.00
70546;BME280;58098;51.680;5.134;2023-09-19T00:56:17;100871.72;;;13.24;100.00
70546;BME280;58098;51.680;5.134;2023-09-19T00:58:44;100880.00;;;13.29;100.00
70546;BME280;58098;51.680;5.134;2023-09-19T01:01:10;100872.03;;;13.21;100.00
70546;BME280;58098;51.680;5.134;2023-09-19T01:03:37;100879.16;;;13.19;100.00
70546;BME280;58098;51.680;5.134;2023-09-19T01:06:02;100888.00;;;13.18;100.00
70546;BME280;58098;51.680;5.134;2023-09-19T01:08:28;100888.13;;;13.07;100.00
70546;BME280;58098;51.680;5.134;2023-09-19T01:11:11;100868.94;;;12.97;100.00
70546;BME280;58098;51.680;5.134;2023-09-19T01:13:55;100878.31;;;12.90;100.00
70546;BME280;58098;51.680;5.134;2023-09-19T01:16:35;100864.19;;;12.72;100.00
70546;BME280;58098;51.680;5.134;2023-09-19T01:22:00;100871.03;;;12.63;100.00
70546;BME280;58098;51.680;5.134;2023-09-19T01:24:33;100889.94;;;12.67;100.00
70546;BME280;58098;51.680;5.134;2023-09-19T01:27:36;100892.38;;;12.58;100.00
70546;BME280;58098;51.680;5.134;2023-09-19T01:30:14;100890.56;;;12.49;100.00
70546;BME280;58098;51.680;5.134;2023-09-19T01:32:40;100905.19;;;12.52;100.00
70546;BME280;58098;51.680;5.134;2023-09-19T01:35:06;100891.09;;;12.43;100.00
70546;BME280;58098;51.680;5.134;2023-09-19T01:37:37;100902.09;;;12.37;100.00
70546;BME280;58098;51.680;5.134;2023-09-19T01:47:54;100910.03;;;12.26;100.00
70546;BME280;58098;51.680;5.134;2023-09-19T01:50:59;100916.34;;;12.24;100.00
70546;BME280;58098;51.680;5.134;2023-09-19T01:53:28;100911.78;;;12.16;100.00
70546;BME280;58098;51.680;5.134;2023-09-19T01:55:56;100919.63;;;12.16;100.00
70546;BME280;58098;51.680;5.134;2023-09-19T02:01:00;100920.81;;;12.12;100.00
70546;BME280;58098;51.680;5.134;2023-09-19T02:03:27;100919.28;;;12.10;100.00
70546;BME280;58098;51.680;5.134;2023-09-19T02:05:54;100903.81;;;11.97;100.00
70546;BME280;58098;51.680;5.134;2023-09-19T02:08:21;100920.91;;;12.01;100.00
70546;BME280;58098;51.680;5.134;2023-09-19T02:10:50;100925.88;;;12.04;100.00
70546;BME280;58098;51.680;5.134;2023-09-19T02:13:17;100910.22;;;11.93;100.00
70546;BME280;58098;51.680;5.134;2023-09-19T02:15:42;100920.00;;;11.91;100.00
70546;BME280;58098;51.680;5.134;2023-09-19T02:18:10;100921.91;;;11.89;100.00
70546;BME280;58098;51.680;5.134;2023-09-19T02:20:36;100913.38;;;11.87;100.00
70546;BME280;58098;51.680;5.134;2023-09-19T02:23:02;100932.75;;;11.84;100.00
70546;BME280;58098;51.680;5.134;2023-09-19T02:25:28;100900.38;;;11.65;100.00
70546;BME280;58098;51.680;5.134;2023-09-19T02:27:53;100936.47;;;11.82;100.00
70546;BME280;58098;51.680;5.134;2023-09-19T02:30:19;100931.72;;;11.76;100.00
70546;BME280;58098;51.680;5.134;2023-09-19T02:32:48;100923.31;;;11.72;100.00
70546;BME280;58098;51.680;5.134;2023-09-19T02:35:14;100923.69;;;11.68;100.00
70546;BME280;58098;51.680;5.134;2023-09-19T02:37:40;100931.25;;;11.71;100.00
70546;BME280;58098;51.680;5.134;2023-09-19T02:40:05;100929.97;;;11.65;100.00
70546;BME280;58098;51.680;5.134;2023-09-19T02:42:43;100943.38;;;11.72;100.00
70546;BME280;58098;51.680;5.134;2023-09-19T02:45:13;100934.03;;;11.69;100.00
70546;BME280;58098;51.680;5.134;2023-09-19T02:47:40;100934.38;;;11.65;100.00
70546;BME280;58098;51.680;5.134;2023-09-19T02:50:05;100942.22;;;11.65;100.00
70546;BME280;58098;51.680;5.134;2023-09-19T02:52:31;100939.59;;;11.65;100.00
70546;BME280;58098;51.680;5.134;2023-09-19T02:54:57;100922.63;;;11.59;100.00
70546;BME280;58098;51.680;5.134;2023-09-19T02:57:22;100935.69;;;11.59;100.00
70546;BME280;58098;51.680;5.134;2023-09-19T02:59:49;100918.59;;;11.55;100.00
70546;BME280;58098;51.680;5.134;2023-09-19T03:02:14;100935.13;;;11.56;100.00
70546;BME280;58098;51.680;5.134;2023-09-19T03:04:41;100941.75;;;11.60;100.00
70546;BME280;58098;51.680;5.134;2023-09-19T03:07:06;100933.13;;;11.48;100.00
70546;BME280;58098;51.680;5.134;2023-09-19T03:09:31;100935.59;;;11.50;100.00
70546;BME280;58098;51.680;5.134;2023-09-19T03:11:57;100930.38;;;11.50;100.00
70546;BME280;58098;51.680;5.134;2023-09-19T03:14:22;100945.81;;;11.53;100.00
70546;BME280;58098;51.680;5.134;2023-09-19T03:16:48;100931.47;;;11.47;100.00
70546;BME280;58098;51.680;5.134;2023-09-19T03:19:13;100945.13;;;11.51;100.00
70546;BME280;58098;51.680;5.134;2023-09-19T03:21:40;100934.41;;;11.54;100.00
70546;BME280;58098;51.680;5.134;2023-09-19T03:24:05;100937.00;;;11.54;100.00
70546;BME280;58098;51.680;5.134;2023-09-19T03:26:31;100929.31;;;11.52;100.00
70546;BME280;58098;51.680;5.134;2023-09-19T03:28:58;100937.75;;;11.56;100.00
70546;BME280;58098;51.680;5.134;2023-09-19T03:31:23;100924.31;;;11.49;100.00
70546;BME280;58098;51.680;5.134;2023-09-19T03:33:49;100931.28;;;11.60;100.00
70546;BME280;58098;51.680;5.134;2023-09-19T03:36:14;100935.69;;;11.59;100.00
70546;BME280;58098;51.680;5.134;2023-09-19T03:38:39;100934.59;;;11.62;100.00
70546;BME280;58098;51.680;5.134;2023-09-19T03:41:05;100936.63;;;11.69;100.00
70546;BME280;58098;51.680;5.134;2023-09-19T03:43:32;100922.72;;;11.69;100.00
70546;BME280;58098;51.680;5.134;2023-09-19T03:46:01;100923.41;;;11.71;100.00
70546;BME280;58098;51.680;5.134;2023-09-19T03:48:28;100937.41;;;11.81;100.00
70546;BME280;58098;51.680;5.134;2023-09-19T03:50:54;100938.22;;;11.81;100.00
70546;BME280;58098;51.680;5.134;2023-09-19T03:53:21;100934.84;;;11.90;100.00
70546;BME280;58098;51.680;5.134;2023-09-19T03:55:47;100929.63;;;11.90;100.00
70546;BME280;58098;51.680;5.134;2023-09-19T03:58:12;100926.63;;;11.95;100.00
70546;BME280;58098;51.680;5.134;2023-09-19T04:00:38;100940.03;;;12.02;100.00
70546;BME280;58098;51.680;5.134;2023-09-19T04:03:03;100929.00;;;11.98;100.00
70546;BME280;58098;51.680;5.134;2023-09-19T04:05:31;100934.47;;;11.95;100.00
70546;BME280;58098;51.680;5.134;2023-09-19T04:07:57;100937.53;;;12.00;100.00
70546;BME280;58098;51.680;5.134;2023-09-19T04:10:22;100941.81;;;12.01;100.00
70546;BME280;58098;51.680;5.134;2023-09-19T04:12:54;100943.28;;;11.94;100.00
70546;BME280;58098;51.680;5.134;2023-09-19T04:15:20;100953.94;;;12.02;100.00
70546;BME280;58098;51.680;5.134;2023-09-19T04:17:50;100962.88;;;12.00;100.00
70546;BME280;58098;51.680;5.134;2023-09-19T04:20:17;100959.69;;;11.96;100.00
70546;BME280;58098;51.680;5.134;2023-09-19T04:22:43;100970.34;;;12.04;100.00
70546;BME280;58098;51.680;5.134;2023-09-19T04:25:08;100978.28;;;12.03;100.00
70546;BME280;58098;51.680;5.134;2023-09-19T04:27:34;100978.69;;;11.98;100.00
70546;BME280;58098;51.680;5.134;2023-09-19T04:30:00;101000.19;;;12.02;100.00
70546;BME280;58098;51.680;5.134;2023-09-19T04:32:28;100986.41;;;12.00;100.00
70546;BME280;58098;51.680;5.134;2023-09-19T04:34:54;100992.53;;;12.10;100.00
70546;BME280;58098;51.680;5.134;2023-09-19T04:37:20;100995.53;;;12.05;100.00
70546;BME280;58098;51.680;5.134;2023-09-19T04:39:46;100976.66;;;12.02;100.00
70546;BME280;58098;51.680;5.134;2023-09-19T04:42:13;101002.88;;;12.11;100.00
70546;BME280;58098;51.680;5.134;2023-09-19T04:44:39;101012.25;;;12.14;100.00
70546;BME280;58098;51.680;5.134;2023-09-19T04:47:05;101022.59;;;12.15;100.00
70546;BME280;58098;51.680;5.134;2023-09-19T04:49:31;101000.25;;;12.11;100.00
70546;BME280;58098;51.680;5.134;2023-09-19T04:51:56;101000.25;;;12.11;100.00
70546;BME280;58098;51.680;5.134;2023-09-19T04:54:21;100995.47;;;12.16;100.00
70546;BME280;58098;51.680;5.134;2023-09-19T04:56:48;101001.41;;;12.18;100.00
70546;BME280;58098;51.680;5.134;2023-09-19T04:59:13;101002.94;;;12.21;100.00
70546;BME280;58098;51.680;5.134;2023-09-19T05:01:40;101004.03;;;12.18;100.00
70546;BME280;58098;51.680;5.134;2023-09-19T05:04:05;101014.81;;;12.25;100.00
70546;BME280;58098;51.680;5.134;2023-09-19T05:06:31;101006.41;;;12.21;100.00
70546;BME280;58098;51.680;5.134;2023-09-19T05:08:56;101018.94;;;12.27;100.00
70546;BME280;58098;51.680;5.134;2023-09-19T05:11:21;101018.00;;;12.28;100.00
70546;BME280;58098;51.680;5.134;2023-09-19T05:13:49;101016.22;;;12.29;100.00
70546;BME280;58098;51.680;5.134;2023-09-19T05:16:21;100997.56;;;12.22;100.00
70546;BME280;58098;51.680;5.134;2023-09-19T05:18:47;101001.16;;;12.21;100.00
70546;BME280;58098;51.680;5.134;2023-09-19T05:21:12;101018.00;;;12.28;100.00
70546;BME280;58098;51.680;5.134;2023-09-19T05:23:38;101019.66;;;12.29;100.00
70546;BME280;58098;51.680;5.134;2023-09-19T05:26:03;101014.69;;;12.26;100.00
70546;BME280;58098;51.680;5.134;2023-09-19T05:28:30;101016.34;;;12.27;100.00
70546;BME280;58098;51.680;5.134;2023-09-19T05:31:00;101021.06;;;12.33;100.00
70546;BME280;58098;51.680;5.134;2023-09-19T05:33:26;101027.69;;;12.37;100.00
70546;BME280;58098;51.680;5.134;2023-09-19T05:35:52;101027.44;;;12.40;100.00
70546;BME280;58098;51.680;5.134;2023-09-19T05:38:19;101013.91;;;12.35;100.00
70546;BME280;58098;51.680;5.134;2023-09-19T05:40:45;101016.97;;;12.40;100.00
70546;BME280;58098;51.680;5.134;2023-09-19T05:43:11;101016.72;;;12.43;100.00
70546;BME280;58098;51.680;5.134;2023-09-19T05:45:36;101007.66;;;12.47;100.00
70546;BME280;58098;51.680;5.134;2023-09-19T05:48:10;101010.97;;;12.49;100.00
70546;BME280;58098;51.680;5.134;2023-09-19T05:50:37;101009.56;;;12.45;100.00
70546;BME280;58098;51.680;5.134;2023-09-19T05:53:03;101014.88;;;12.55;100.00
70546;BME280;58098;51.680;5.134;2023-09-19T05:55:29;101008.22;;;12.51;100.00
70546;BME280;58098;51.680;5.134;2023-09-19T05:57:55;101009.38;;;12.58;100.00
70546;BME280;58098;51.680;5.134;2023-09-19T06:00:22;101012.94;;;12.57;100.00
70546;BME280;58098;51.680;5.134;2023-09-19T06:02:52;101016.84;;;12.63;100.00
70546;BME280;58098;51.680;5.134;2023-09-19T06:05:18;101000.53;;;12.59;100.00
70546;BME280;58098;51.680;5.134;2023-09-19T06:07:43;101010.38;;;12.67;100.00
70546;BME280;58098;51.680;5.134;2023-09-19T06:10:09;101006.38;;;12.63;100.00
70546;BME280;58098;51.680;5.134;2023-09-19T06:12:41;101015.91;;;12.73;100.00
70546;BME280;58098;51.680;5.134;2023-09-19T06:15:09;101022.56;;;12.77;100.00
70546;BME280;58098;51.680;5.134;2023-09-19T06:17:40;101017.44;;;12.76;100.00
70546;BME280;58098;51.680;5.134;2023-09-19T06:20:06;101022.84;;;12.84;100.00
70546;BME280;58098;51.680;5.134;2023-09-19T06:22:38;101037.34;;;12.88;100.00
70546;BME280;58098;51.680;5.134;2023-09-19T06:25:03;101031.00;;;12.90;100.00
70546;BME280;58098;51.680;5.134;2023-09-19T06:27:29;101035.16;;;12.93;100.00
70546;BME280;58098;51.680;5.134;2023-09-19T06:29:54;101048.44;;;13.01;100.00
70546;BME280;58098;51.680;5.134;2023-09-19T06:32:27;101035.75;;;12.96;100.00
70546;BME280;58098;51.680;5.134;2023-09-19T06:34:52;101019.19;;;12.96;100.00
70546;BME280;58098;51.680;5.134;2023-09-19T06:37:19;101036.50;;;13.08;100.00
70546;BME280;58098;51.680;5.134;2023-09-19T06:39:46;101046.03;;;13.09;100.00
70546;BME280;58098;51.680;5.134;2023-09-19T06:42:13;101042.31;;;13.11;100.00
70546;BME280;58098;51.680;5.134;2023-09-19T06:44:38;101048.53;;;13.20;100.00
70546;BME280;58098;51.680;5.134;2023-09-19T06:47:04;101040.81;;;13.18;100.00
70546;BME280;58098;51.680;5.134;2023-09-19T06:49:30;101054.06;;;13.27;100.00
70546;BME280;58098;51.680;5.134;2023-09-19T06:51:56;101046.78;;;13.30;100.00
70546;BME280;58098;51.680;5.134;2023-09-19T06:54:22;101043.06;;;13.33;100.00
70546;BME280;58098;51.680;5.134;2023-09-19T06:56:48;101041.41;;;13.32;100.00
70546;BME280;58098;51.680;5.134;2023-09-19T06:59:13;101039.34;;;13.35;100.00
70546;BME280;58098;51.680;5.134;2023-09-19T07:01:39;101034.81;;;13.37;100.00
70546;BME280;58098;51.680;5.134;2023-09-19T07:04:05;101047.50;;;13.42;100.00
70546;BME280;58098;51.680;5.134;2023-09-19T07:06:30;101052.34;;;13.46;100.00
70546;BME280;58098;51.680;5.134;2023-09-19T07:08:55;101047.78;;;13.48;100.00
70546;BME280;58098;51.680;5.134;2023-09-19T07:11:21;101043.97;;;13.52;100.00
70546;BME280;58098;51.680;5.134;2023-09-19T07:13:48;101054.88;;;13.57;100.00
70546;BME280;58098;51.680;5.134;2023-09-19T07:16:14;101051.16;;;13.60;100.00
70546;BME280;58098;51.680;5.134;2023-09-19T07:18:52;101050.91;;;13.72;100.00
70546;BME280;58098;51.680;5.134;2023-09-19T07:21:17;101049.50;;;13.78;100.00
70546;BME280;58098;51.680;5.134;2023-09-19T07:23:43;101054.34;;;13.82;100.00
70546;BME280;58098;51.680;5.134;2023-09-19T07:26:08;101048.41;;;13.90;100.00
70546;BME280;58098;51.680;5.134;2023-09-19T07:28:33;101051.59;;;13.94;100.00
70546;BME280;58098;51.680;5.134;2023-09-19T07:31:02;101060.00;;;13.97;100.00
70546;BME280;58098;51.680;5.134;2023-09-19T07:33:28;101054.22;;;14.03;100.00
70546;BME280;58098;51.680;5.134;2023-09-19T07:35:53;101053.13;;;14.15;100.00
70546;BME280;58098;51.680;5.134;2023-09-19T07:38:19;101043.47;;;14.16;100.00
70546;BME280;58098;51.680;5.134;2023-09-19T07:40:45;101061.13;;;14.23;100.00
70546;BME280;58098;51.680;5.134;2023-09-19T07:43:11;101061.00;;;14.34;100.00
70546;BME280;58098;51.680;5.134;2023-09-19T07:45:36;101064.63;;;14.43;100.00
70546;BME280;58098;51.680;5.134;2023-09-19T07:48:02;101072.59;;;14.51;100.00
70546;BME280;58098;51.680;5.134;2023-09-19T07:50:29;101060.28;;;14.61;100.00
70546;BME280;58098;51.680;5.134;2023-09-19T07:52:55;101069.25;;;14.68;100.00
70546;BME280;58098;51.680;5.134;2023-09-19T07:55:21;101069.09;;;14.79;100.00
70546;BME280;58098;51.680;5.134;2023-09-19T07:57:52;101064.38;;;14.83;100.00
70546;BME280;58098;51.680;5.134;2023-09-19T08:00:17;101065.44;;;14.90;100.00
70546;BME280;58098;51.680;5.134;2023-09-19T08:02:43;101065.31;;;14.91;100.00
70546;BME280;58098;51.680;5.134;2023-09-19T08:05:09;101061.28;;;14.97;100.00
70546;BME280;58098;51.680;5.134;2023-09-19T08:07:40;101078.69;;;15.07;100.00
70546;BME280;58098;51.680;5.134;2023-09-19T08:10:07;101076.06;;;15.07;100.00
70546;BME280;58098;51.680;5.134;2023-09-19T08:12:39;101081.69;;;15.12;100.00
70546;BME280;58098;51.680;5.134;2023-09-19T08:15:18;101064.25;;;15.11;100.00
70546;BME280;58098;51.680;5.134;2023-09-19T08:17:46;101069.47;;;15.21;100.00
70546;BME280;58098;51.680;5.134;2023-09-19T08:20:13;101082.78;;;15.19;100.00
70546;BME280;58098;51.680;5.134;2023-09-19T08:22:48;101080.81;;;15.21;100.00
70546;BME280;58098;51.680;5.134;2023-09-19T08:25:16;101089.66;;;15.30;100.00
70546;BME280;58098;51.680;5.134;2023-09-19T08:27:45;101082.97;;;15.36;100.00
70546;BME280;58098;51.680;5.134;2023-09-19T08:30:14;101078.31;;;15.30;100.00
70546;BME280;58098;51.680;5.134;2023-09-19T08:32:40;101087.25;;;15.46;100.00
70546;BME280;58098;51.680;5.134;2023-09-19T08:35:08;101076.59;;;15.48;100.00
70546;BME280;58098;51.680;5.134;2023-09-19T08:37:34;101079.50;;;15.72;100.00
70546;BME280;58098;51.680;5.134;2023-09-19T08:39:59;101085.03;;;15.96;100.00
70546;BME280;58098;51.680;5.134;2023-09-19T08:42:25;101074.25;;;16.07;100.00
70546;BME280;58098;51.680;5.134;2023-09-19T08:44:50;101072.00;;;16.12;100.00
70546;BME280;58098;51.680;5.134;2023-09-19T08:47:19;101068.06;;;16.16;100.00
70546;BME280;58098;51.680;5.134;2023-09-19T08:52:28;101079.13;;;16.55;100.00
70546;BME280;58098;51.680;5.134;2023-09-19T08:55:01;101078.97;;;16.74;100.00
70546;BME280;58098;51.680;5.134;2023-09-19T08:57:33;101082.63;;;16.81;100.00
70546;BME280;58098;51.680;5.134;2023-09-19T09:00:02;101083.53;;;16.72;100.00
70546;BME280;58098;51.680;5.134;2023-09-19T09:02:31;101086.63;;;16.68;100.00
70546;BME280;58098;51.680;5.134;2023-09-19T09:04:59;101078.16;;;16.82;100.00
70546;BME280;58098;51.680;5.134;2023-09-19T09:07:25;101071.19;;;16.73;100.00
70546;BME280;58098;51.680;5.134;2023-09-19T09:09:53;101084.91;;;16.76;100.00
70546;BME280;58098;51.680;5.134;2023-09-19T09:12:19;101079.38;;;16.70;100.00
70546;BME280;58098;51.680;5.134;2023-09-19T09:14:46;101066.53;;;16.67;100.00
70546;BME280;58098;51.680;5.134;2023-09-19T09:17:15;101069.31;;;16.65;100.00
70546;BME280;58098;51.680;5.134;2023-09-19T09:19:42;101056.59;;;16.61;100.00
70546;BME280;58098;51.680;5.134;2023-09-19T09:22:09;101052.84;;;16.63;100.00
70546;BME280;58098;51.680;5.134;2023-09-19T09:24:35;101057.88;;;16.74;100.00
70546;BME280;58098;51.680;5.134;2023-09-19T09:27:06;101057.59;;;16.85;100.00
70546;BME280;58098;51.680;5.134;2023-09-19T09:29:48;101051.59;;;17.01;100.00
70546;BME280;58098;51.680;5.134;2023-09-19T09:32:20;101049.22;;;17.24;100.00
70546;BME280;58098;51.680;5.134;2023-09-19T09:34:57;101063.69;;;17.53;100.00
70546;BME280;58098;51.680;5.134;2023-09-19T09:37:23;101059.84;;;17.40;100.00
70546;BME280;58098;51.680;5.134;2023-09-19T09:40:00;101057.69;;;17.43;100.00
70546;BME280;58098;51.680;5.134;2023-09-19T09:42:44;101046.97;;;17.37;100.00
70546;BME280;58098;51.680;5.134;2023-09-19T09:47:47;101061.13;;;17.28;100.00
70546;BME280;58098;51.680;5.134;2023-09-19T09:50:28;101063.28;;;17.40;100.00
70546;BME280;58098;51.680;5.134;2023-09-19T09:53:25;101058.88;;;17.49;100.00
70546;BME280;58098;51.680;5.134;2023-09-19T09:56:08;101060.91;;;17.63;100.00
70546;BME280;58098;51.680;5.134;2023-09-19T09:58:51;101065.72;;;17.67;100.00
70546;BME280;58098;51.680;5.134;2023-09-19T10:01:24;101072.84;;;17.83;100.00
70546;BME280;58098;51.680;5.134;2023-09-19T10:03:57;101065.75;;;17.92;100.00
70546;BME280;58098;51.680;5.134;2023-09-19T10:06:22;101059.00;;;17.97;100.00
70546;BME280;58098;51.680;5.134;2023-09-19T10:09:07;101068.44;;;18.08;100.00
70546;BME280;58098;51.680;5.134;2023-09-19T10:11:57;101062.66;;;18.12;100.00
70546;BME280;58098;51.680;5.134;2023-09-19T10:14:30;101061.00;;;18.19;100.00
70546;BME280;58098;51.680;5.134;2023-09-19T10:16:59;101061.16;;;18.26;100.00
70546;BME280;58098;51.680;5.134;2023-09-19T10:19:33;101065.63;;;18.41;100.00
70546;BME280;58098;51.680;5.134;2023-09-19T10:22:02;101052.09;;;18.44;100.00
70546;BME280;58098;51.680;5.134;2023-09-19T10:24:28;101047.47;;;18.55;100.00
70546;BME280;58098;51.680;5.134;2023-09-19T10:26:54;101056.41;;;18.62;100.00
70546;BME280;58098;51.680;5.134;2023-09-19T10:29:21;101038.38;;;18.73;100.00
70546;BME280;58098;51.680;5.134;2023-09-19T10:31:47;101054.88;;;18.83;100.00
70546;BME280;58098;51.680;5.134;2023-09-19T10:34:17;101048.69;;;19.07;100.00
70546;BME280;58098;51.680;5.134;2023-09-19T10:36:46;101052.47;;;19.13;100.00
70546;BME280;58098;51.680;5.134;2023-09-19T10:39:16;101048.47;;;19.17;100.00
70546;BME280;58098;51.680;5.134;2023-09-19T10:41:49;101037.16;;;19.39;100.00
70546;BME280;58098;51.680;5.134;2023-09-19T10:44:23;101033.34;;;19.33;100.00
70546;BME280;58098;51.680;5.134;2023-09-19T10:46:49;101034.06;;;19.19;100.00
70546;BME280;58098;51.680;5.134;2023-09-19T10:49:18;101017.41;;;19.10;100.00
70546;BME280;58098;51.680;5.134;2023-09-19T10:51:44;101019.50;;;19.23;100.00
70546;BME280;58098;51.680;5.134;2023-09-19T10:54:13;101036.19;;;19.24;100.00
70546;BME280;58098;51.680;5.134;2023-09-19T10:56:50;101034.44;;;19.08;100.00
70546;BME280;58098;51.680;5.134;2023-09-19T10:59:18;101029.84;;;18.94;100.00
70546;BME280;58098;51.680;5.134;2023-09-19T11:04:27;101014.81;;;19.02;100.00
70546;BME280;58098;51.680;5.134;2023-09-19T11:09:49;101000.72;;;19.10;100.00
70546;BME280;58098;51.680;5.134;2023-09-19T11:14:57;101007.72;;;19.42;100.00
70546;BME280;58098;51.680;5.134;2023-09-19T11:17:39;100972.00;;;19.60;100.00
70546;BME280;58098;51.680;5.134;2023-09-19T11:43:50;100969.25;;;20.36;100.00
70546;BME280;58098;51.680;5.134;2023-09-19T11:46:17;100973.34;;;20.39;100.00
70546;BME280;58098;51.680;5.134;2023-09-19T11:48:47;100979.38;;;20.48;100.00
70546;BME280;58098;51.680;5.134;2023-09-19T11:51:14;100982.03;;;20.48;100.00
70546;BME280;58098;51.680;5.134;2023-09-19T11:53:46;100989.16;;;20.62;100.00
70546;BME280;58098;51.680;5.134;2023-09-19T11:56:15;100980.22;;;20.63;100.00
70546;BME280;58098;51.680;5.134;2023-09-19T11:58:45;100966.06;;;20.70;100.00
70546;BME280;58098;51.680;5.134;2023-09-19T12:01:15;100979.03;;;20.94;100.00
70546;BME280;58098;51.680;5.134;2023-09-19T12:03:47;100975.75;;;20.78;100.00
70546;BME280;58098;51.680;5.134;2023-09-19T12:06:18;100986.44;;;20.70;100.00
70546;BME280;58098;51.680;5.134;2023-09-19T12:08:44;100991.66;;;20.78;100.00
70546;BME280;58098;51.680;5.134;2023-09-19T12:11:13;100991.38;;;20.73;100.00
70546;BME280;58098;51.680;5.134;2023-09-19T12:13:44;100988.38;;;20.47;100.00
70546;BME280;58098;51.680;5.134;2023-09-19T12:16:17;100969.59;;;20.33;100.00
70546;BME280;58098;51.680;5.134;2023-09-19T12:18:47;100987.09;;;20.20;100.00
70546;BME280;58098;51.680;5.134;2023-09-19T12:26:39;100958.75;;;20.20;100.00
70546;BME280;58098;51.680;5.134;2023-09-19T12:29:11;100970.34;;;20.57;100.00
70546;BME280;58098;51.680;5.134;2023-09-19T12:31:47;100970.72;;;20.54;100.00
70546;BME280;58098;51.680;5.134;2023-09-19T12:34:17;100988.09;;;20.42;100.00
70546;BME280;58098;51.680;5.134;2023-09-19T12:36:42;100968.53;;;20.20;100.00
70546;BME280;58098;51.680;5.134;2023-09-19T12:39:08;100961.72;;;20.25;100.00
70546;BME280;58098;51.680;5.134;2023-09-19T12:41:34;100970.03;;;20.37;100.00
70546;BME280;58098;51.680;5.134;2023-09-19T12:44:00;100975.09;;;20.47;100.00
70546;BME280;58098;51.680;5.134;2023-09-19T12:46:25;100981.94;;;20.41;100.00
70546;BME280;58098;51.680;5.134;2023-09-19T12:49:19;100992.00;;;20.46;100.00
70546;BME280;58098;51.680;5.134;2023-09-19T12:51:47;100988.09;;;20.42;100.00
70546;BME280;58098;51.680;5.134;2023-09-19T12:54:13;100988.78;;;20.35;100.00
70546;BME280;58098;51.680;5.134;2023-09-19T12:56:43;100992.47;;;20.34;100.00
70546;BME280;58098;51.680;5.134;2023-09-19T12:59:15;100972.78;;;20.06;100.00
70546;BME280;58098;51.680;5.134;2023-09-19T13:01:41;100980.81;;;19.98;100.00
70546;BME280;58098;51.680;5.134;2023-09-19T13:04:11;100990.66;;;19.90;100.00
70546;BME280;58098;51.680;5.134;2023-09-19T13:06:43;100985.00;;;19.70;100.00
70546;BME280;58098;51.680;5.134;2023-09-19T13:09:10;100967.53;;;19.61;100.00
70546;BME280;58098;51.680;5.134;2023-09-19T13:11:37;100986.59;;;19.79;100.00
70546;BME280;58098;51.680;5.134;2023-09-19T13:16:57;101004.31;;;20.01;100.00
70546;BME280;58098;51.680;5.134;2023-09-19T13:19:45;101006.13;;;20.23;100.00
70546;BME280;58098;51.680;5.134;2023-09-19T13:25:08;100986.50;;;20.32;100.00
70546;BME280;58098;51.680;5.134;2023-09-19T13:27:39;100978.53;;;20.32;100.00
70546;BME280;58098;51.680;5.134;2023-09-19T13:30:05;100992.38;;;20.57;100.00
70546;BME280;58098;51.680;5.134;2023-09-19T13:32:32;100983.16;;;20.53;100.00
70546;BME280;58098;51.680;5.134;2023-09-19T13:34:58;100994.47;;;20.62;100.00
70546;BME280;58098;51.680;5.134;2023-09-19T13:37:23;100984.78;;;20.69;100.00
70546;BME280;58098;51.680;5.134;2023-09-19T13:39:48;100974.09;;;20.62;100.00
70546;BME280;58098;51.680;5.134;2023-09-19T13:42:14;100992.56;;;20.70;100.00
70546;BME280;58098;51.680;5.134;2023-09-19T13:44:39;100973.44;;;20.60;100.00
70546;BME280;58098;51.680;5.134;2023-09-19T13:47:06;100981.06;;;20.63;100.00